sensor_id;sensor_type;location;lat;lon;timestamp;pressure;altitude;pressure_sealevel;temperature;humidity
73700;BME280;62005;50.082;8.988;2023-04-15T00:00:13;99631.13;;;6.87;75.77
73700;BME280;62005;50.082;8.988;2023-04-15T00:02:40;99626.19;;;6.84;75.27
73700;BME280;62005;50.082;8.988;2023-04-15T00:05:05;99631.13;;;6.87;75.69
73700;BME280;62005;50.082;8.988;2023-04-15T00:07:31;99635.66;;;6.87;75.60
73700;BME280;62005;50.082;8.988;2023-04-15T00:09:57;99627.81;;;6.85;75.71
73700;BME280;62005;50.082;8.988;2023-04-15T00:12:23;99610.97;;;6.72;76.42
73700;BME280;62005;50.082;8.988;2023-04-15T00:14:48;99619.19;;;6.77;76.36
73700;BME280;62005;50.082;8.988;2023-04-15T00:17:15;99607.25;;;6.66;77.00
73700;BME280;62005;50.082;8.988;2023-04-15T00:19:41;99610.56;;;6.68;76.56
73700;BME280;62005;50.082;8.988;2023-04-15T00:22:06;99620.88;;;6.71;76.66
73700;BME280;62005;50.082;8.988;2023-04-15T00:24:32;99626.66;;;6.68;77.01
73700;BME280;62005;50.082;8.988;2023-04-15T00:26:58;99618.19;;;6.71;76.83
73700;BME280;62005;50.082;8.988;2023-04-15T00:29:24;99622.53;;;6.72;76.63
73700;BME280;62005;50.082;8.988;2023-04-15T00:31:49;99613.41;;;6.73;77.35
73700;BME280;62005;50.082;8.988;2023-04-15T00:34:15;99604.84;;;6.58;77.30
73700;BME280;62005;50.082;8.988;2023-04-15T00:36:40;99613.47;;;6.67;77.42
73700;BME280;62005;50.082;8.988;2023-04-15T00:39:06;99606.06;;;6.62;76.96
73700;BME280;62005;50.082;8.988;2023-04-15T00:41:31;99597.41;;;6.60;77.54
73700;BME280;62005;50.082;8.988;2023-04-15T00:43:58;99605.22;;;6.61;77.10
73700;BME280;62005;50.082;8.988;2023-04-15T00:46:25;99602.75;;;6.60;77.09
73700;BME280;62005;50.082;8.988;2023-04-15T00:48:51;99609.63;;;6.56;77.24
73700;BME280;62005;50.082;8.988;2023-04-15T00:51:18;99604.25;;;6.56;77.38
73700;BME280;62005;50.082;8.988;2023-04-15T00:53:44;99609.81;;;6.61;77.26
73700;BME280;62005;50.082;8.988;2023-04-15T00:56:09;99592.91;;;6.54;76.83
73700;BME280;62005;50.082;8.988;2023-04-15T00:58:35;99615.75;;;6.63;77.84
73700;BME280;62005;50.082;8.988;2023-04-15T01:01:01;99623.41;;;6.59;77.07
73700;BME280;62005;50.082;8.988;2023-04-15T01:03:28;99610.03;;;6.53;77.09
73700;BME280;62005;50.082;8.988;2023-04-15T01:05:54;99613.16;;;6.50;77.50
73700;BME280;62005;50.082;8.988;2023-04-15T01:08:28;99605.34;;;6.42;77.52
73700;BME280;62005;50.082;8.988;2023-04-15T01:10:57;99616.69;;;6.44;77.56
73700;BME280;62005;50.082;8.988;2023-04-15T01:13:25;99597.97;;;6.31;77.95
73700;BME280;62005;50.082;8.988;2023-04-15T01:15:51;99603.75;;;6.34;77.78
73700;BME280;62005;50.082;8.988;2023-04-15T01:18:17;99601.28;;;6.33;77.77
73700;BME280;62005;50.082;8.988;2023-04-15T01:20:43;99593.06;;;6.28;77.95
73700;BME280;62005;50.082;8.988;2023-04-15T01:23:08;99602.47;;;6.37;78.06
73700;BME280;62005;50.082;8.988;2023-04-15T01:25:34;99596.75;;;6.27;77.83
73700;BME280;62005;50.082;8.988;2023-04-15T01:28:00;99609.91;;;6.35;77.95
73700;BME280;62005;50.082;8.988;2023-04-15T01:30:26;99604.41;;;6.23;79.50
73700;BME280;62005;50.082;8.988;2023-04-15T01:32:52;99610.41;;;6.19;79.48
73700;BME280;62005;50.082;8.988;2023-04-15T01:35:18;99620.72;;;6.22;79.28
73700;BME280;62005;50.082;8.988;2023-04-15T01:37:44;99590.66;;;6.07;78.67
73700;BME280;62005;50.082;8.988;2023-04-15T01:40:09;99612.06;;;6.20;79.14
73700;BME280;62005;50.082;8.988;2023-04-15T01:42:35;99584.50;;;6.00;79.43
73700;BME280;62005;50.082;8.988;2023-04-15T01:45:01;99604.25;;;6.12;79.10
73700;BME280;62005;50.082;8.988;2023-04-15T01:47:27;99599.31;;;6.09;79.05
73700;BME280;62005;50.082;8.988;2023-04-15T01:49:52;99611.28;;;6.13;79.20
73700;BME280;62005;50.082;8.988;2023-04-15T01:52:17;99586.34;;;5.99;79.46
73700;BME280;62005;50.082;8.988;2023-04-15T01:54:43;99600.94;;;6.10;79.97
73700;BME280;62005;50.082;8.988;2023-04-15T01:57:09;99604.47;;;6.10;79.28
73700;BME280;62005;50.082;8.988;2023-04-15T01:59:34;99588.19;;;5.99;79.51
73700;BME280;62005;50.082;8.988;2023-04-15T02:02:00;99608.41;;;6.08;80.63
73700;BME280;62005;50.082;8.988;2023-04-15T02:04:26;99595.03;;;6.01;80.61
73700;BME280;62005;50.082;8.988;2023-04-15T02:06:52;99593.13;;;6.02;80.28
73700;BME280;62005;50.082;8.988;2023-04-15T02:09:17;99597.69;;;6.01;79.95
73700;BME280;62005;50.082;8.988;2023-04-15T02:11:43;99613.78;;;6.08;79.17
73700;BME280;62005;50.082;8.988;2023-04-15T02:14:09;99612.94;;;6.07;79.97
73700;BME280;62005;50.082;8.988;2023-04-15T02:16:34;99601.84;;;5.97;80.11
73700;BME280;62005;50.082;8.988;2023-04-15T02:19:00;99615.44;;;6.02;80.21
73700;BME280;62005;50.082;8.988;2023-04-15T02:21:25;99608.81;;;5.98;79.53
73700;BME280;62005;50.082;8.988;2023-04-15T02:23:51;99601.44;;;5.94;79.90
73700;BME280;62005;50.082;8.988;2023-04-15T02:26:18;99611.72;;;5.97;80.16
73700;BME280;62005;50.082;8.988;2023-04-15T02:28:43;99610.72;;;5.98;80.30
73700;BME280;62005;50.082;8.988;2023-04-15T02:31:09;99611.53;;;5.92;80.17
73700;BME280;62005;50.082;8.988;2023-04-15T02:33:34;99617.09;;;5.97;80.62
73700;BME280;62005;50.082;8.988;2023-04-15T02:36:01;99618.75;;;5.98;80.20
73700;BME280;62005;50.082;8.988;2023-04-15T02:38:26;99621.66;;;5.96;80.68
73700;BME280;62005;50.082;8.988;2023-04-15T02:40:52;99618.78;;;5.91;80.70
73700;BME280;62005;50.082;8.988;2023-04-15T02:43:17;99624.94;;;5.92;80.30
73700;BME280;62005;50.082;8.988;2023-04-15T02:45:43;99627.44;;;5.87;80.43
73700;BME280;62005;50.082;8.988;2023-04-15T02:48:09;99621.69;;;5.83;80.74
73700;BME280;62005;50.082;8.988;2023-04-15T02:50:34;99610.53;;;5.80;80.76
73700;BME280;62005;50.082;8.988;2023-04-15T02:53:01;99578.00;;;5.57;80.57
73700;BME280;62005;50.082;8.988;2023-04-15T02:55:27;99594.47;;;5.67;80.82
73700;BME280;62005;50.082;8.988;2023-04-15T02:57:53;99616.72;;;5.74;80.91
73700;BME280;62005;50.082;8.988;2023-04-15T03:00:18;99619.59;;;5.79;81.02
73700;BME280;62005;50.082;8.988;2023-04-15T03:02:45;99629.88;;;5.82;80.13
73700;BME280;62005;50.082;8.988;2023-04-15T03:05:12;99617.94;;;5.78;80.42
73700;BME280;62005;50.082;8.988;2023-04-15T03:07:37;99615.91;;;5.80;80.33
73700;BME280;62005;50.082;8.988;2023-04-15T03:10:04;99606.41;;;5.71;80.76
73700;BME280;62005;50.082;8.988;2023-04-15T03:12:30;99605.78;;;5.69;80.55
73700;BME280;62005;50.082;8.988;2023-04-15T03:14:55;99615.06;;;5.73;80.48
73700;BME280;62005;50.082;8.988;2023-04-15T03:17:21;99610.56;;;5.67;80.14
73700;BME280;62005;50.082;8.988;2023-04-15T03:19:47;99611.16;;;5.69;80.69
73700;BME280;62005;50.082;8.988;2023-04-15T03:22:12;99609.53;;;5.68;80.63
73700;BME280;62005;50.082;8.988;2023-04-15T03:24:38;99608.91;;;5.66;80.71
73700;BME280;62005;50.082;8.988;2023-04-15T03:27:03;99611.38;;;5.67;80.58
73700;BME280;62005;50.082;8.988;2023-04-15T03:29:30;99592.00;;;5.59;80.86
73700;BME280;62005;50.082;8.988;2023-04-15T03:31:55;99594.50;;;5.54;81.02
73700;BME280;62005;50.082;8.988;2023-04-15T03:34:21;99608.91;;;5.59;80.57
73700;BME280;62005;50.082;8.988;2023-04-15T03:36:46;99601.94;;;5.52;81.31
73700;BME280;62005;50.082;8.988;2023-04-15T03:39:12;99600.88;;;5.53;81.37
73700;BME280;62005;50.082;8.988;2023-04-15T03:41:37;99585.44;;;5.42;81.35
73700;BME280;62005;50.082;8.988;2023-04-15T03:44:03;99580.91;;;5.49;81.33
73700;BME280;62005;50.082;8.988;2023-04-15T03:46:28;99604.81;;;5.57;81.23
73700;BME280;62005;50.082;8.988;2023-04-15T03:48:53;99599.88;;;5.54;80.99
73700;BME280;62005;50.082;8.988;2023-04-15T03:51:19;99608.50;;;5.56;81.20
73700;BME280;62005;50.082;8.988;2023-04-15T03:53:44;99591.81;;;5.47;81.27
73700;BME280;62005;50.082;8.988;2023-04-15T03:56:10;99587.09;;;5.43;81.21
73700;BME280;62005;50.082;8.988;2023-04-15T03:58:35;99595.31;;;5.48;81.75
73700;BME280;62005;50.082;8.988;2023-04-15T04:01:00;99589.16;;;5.41;81.85
73700;BME280;62005;50.082;8.988;2023-04-15T04:03:26;99606.47;;;5.45;81.36
73700;BME280;62005;50.082;8.988;2023-04-15T04:05:51;99594.94;;;5.38;81.66
73700;BME280;62005;50.082;8.988;2023-04-15T04:08:16;99616.16;;;5.46;81.91
73700;BME280;62005;50.082;8.988;2023-04-15T04:10:43;99604.41;;;5.47;82.59
73700;BME280;62005;50.082;8.988;2023-04-15T04:13:09;99597.81;;;5.43;82.71
73700;BME280;62005;50.082;8.988;2023-04-15T04:15:34;99593.28;;;5.37;81.95
73700;BME280;62005;50.082;8.988;2023-04-15T04:17:59;99605.22;;;5.41;82.16
73700;BME280;62005;50.082;8.988;2023-04-15T04:20:25;99595.75;;;5.38;81.98
73700;BME280;62005;50.082;8.988;2023-04-15T04:22:50;99599.28;;;5.39;82.30
73700;BME280;62005;50.082;8.988;2023-04-15T04:25:16;99607.31;;;5.45;82.20
73700;BME280;62005;50.082;8.988;2023-04-15T04:27:41;99604.84;;;5.44;81.84
73700;BME280;62005;50.082;8.988;2023-04-15T04:30:07;99604.41;;;5.40;82.36
73700;BME280;62005;50.082;8.988;2023-04-15T04:32:33;99599.06;;;5.33;82.53
73700;BME280;62005;50.082;8.988;2023-04-15T04:34:58;99614.31;;;5.40;82.63
73700;BME280;62005;50.082;8.988;2023-04-15T04:37:23;99609.78;;;5.33;82.28
73700;BME280;62005;50.082;8.988;2023-04-15T04:39:49;99629.13;;;5.42;82.74
73700;BME280;62005;50.082;8.988;2023-04-15T04:42:14;99631.22;;;5.40;82.44
73700;BME280;62005;50.082;8.988;2023-04-15T04:44:40;99621.72;;;5.38;82.29
73700;BME280;62005;50.082;8.988;2023-04-15T04:47:05;99613.47;;;5.32;83.05
73700;BME280;62005;50.082;8.988;2023-04-15T04:49:31;99618.41;;;5.35;82.62
73700;BME280;62005;50.082;8.988;2023-04-15T04:51:57;99614.72;;;5.37;82.56
73700;BME280;62005;50.082;8.988;2023-04-15T04:54:22;99624.59;;;5.43;82.91
73700;BME280;62005;50.082;8.988;2023-04-15T04:56:48;99621.31;;;5.41;82.36
73700;BME280;62005;50.082;8.988;2023-04-15T04:59:13;99620.50;;;5.40;82.78
73700;BME280;62005;50.082;8.988;2023-04-15T05:01:39;99626.66;;;5.41;83.11
73700;BME280;62005;50.082;8.988;2023-04-15T05:04:05;99612.69;;;5.32;83.03
73700;BME280;62005;50.082;8.988;2023-04-15T05:06:31;99612.25;;;5.28;83.84
73700;BME280;62005;50.082;8.988;2023-04-15T05:08:57;99633.06;;;5.40;84.52
73700;BME280;62005;50.082;8.988;2023-04-15T05:11:22;99623.38;;;5.39;84.29
73700;BME280;62005;50.082;8.988;2023-04-15T05:13:47;99621.72;;;5.38;84.24
73700;BME280;62005;50.082;8.988;2023-04-15T05:16:13;99593.50;;;5.22;83.99
73700;BME280;62005;50.082;8.988;2023-04-15T05:18:38;99634.91;;;5.46;83.57
73700;BME280;62005;50.082;8.988;2023-04-15T05:21:04;99629.53;;;5.46;83.89
73700;BME280;62005;50.082;8.988;2023-04-15T05:23:29;99644.81;;;5.52;84.09
73700;BME280;62005;50.082;8.988;2023-04-15T05:25:55;99632.44;;;5.51;84.06
73700;BME280;62005;50.082;8.988;2023-04-15T05:28:20;99643.97;;;5.58;83.24
73700;BME280;62005;50.082;8.988;2023-04-15T05:30:46;99652.22;;;5.63;84.32
73700;BME280;62005;50.082;8.988;2023-04-15T05:33:11;99641.50;;;5.63;83.14
73700;BME280;62005;50.082;8.988;2023-04-15T05:35:36;99637.75;;;5.64;84.34
73700;BME280;62005;50.082;8.988;2023-04-15T05:38:02;99637.75;;;5.64;84.19
73700;BME280;62005;50.082;8.988;2023-04-15T05:40:28;99640.66;;;5.69;84.32
73700;BME280;62005;50.082;8.988;2023-04-15T05:42:54;99641.69;;;5.68;84.39
73700;BME280;62005;50.082;8.988;2023-04-15T05:45:19;99641.88;;;5.73;84.62
73700;BME280;62005;50.082;8.988;2023-04-15T05:47:45;99629.53;;;5.72;84.83
73700;BME280;62005;50.082;8.988;2023-04-15T05:50:10;99630.75;;;5.76;84.71
73700;BME280;62005;50.082;8.988;2023-04-15T05:52:36;99641.03;;;5.79;84.78
73700;BME280;62005;50.082;8.988;2023-04-15T05:55:01;99641.88;;;5.86;84.95
73700;BME280;62005;50.082;8.988;2023-04-15T05:57:27;99620.44;;;5.73;85.33
73700;BME280;62005;50.082;8.988;2023-04-15T05:59:52;99651.38;;;5.95;85.03
73700;BME280;62005;50.082;8.988;2023-04-15T06:02:18;99640.63;;;5.95;85.18
73700;BME280;62005;50.082;8.988;2023-04-15T06:04:43;99642.69;;;5.99;85.26
73700;BME280;62005;50.082;8.988;2023-04-15T06:07:08;99659.56;;;6.13;85.01
73700;BME280;62005;50.082;8.988;2023-04-15T06:09:34;99659.16;;;6.16;84.86
73700;BME280;62005;50.082;8.988;2023-04-15T06:12:00;99653.34;;;6.19;85.84
73700;BME280;62005;50.082;8.988;2023-04-15T06:14:26;99656.63;;;6.27;85.91
73700;BME280;62005;50.082;8.988;2023-04-15T06:16:52;99655.97;;;6.32;85.49
73700;BME280;62005;50.082;8.988;2023-04-15T06:19:17;99639.25;;;6.30;85.46
73700;BME280;62005;50.082;8.988;2023-04-15T06:21:43;99645.44;;;6.37;85.47
73700;BME280;62005;50.082;8.988;2023-04-15T06:24:09;99645.00;;;6.40;85.38
73700;BME280;62005;50.082;8.988;2023-04-15T06:26:34;99630.97;;;6.38;85.51
73700;BME280;62005;50.082;8.988;2023-04-15T06:29:00;99664.34;;;6.55;85.43
73700;BME280;62005;50.082;8.988;2023-04-15T06:31:25;99656.91;;;6.57;85.71
73700;BME280;62005;50.082;8.988;2023-04-15T06:33:51;99646.16;;;6.57;85.65
73700;BME280;62005;50.082;8.988;2023-04-15T06:36:19;99676.25;;;6.72;84.78
73700;BME280;62005;50.082;8.988;2023-04-15T06:38:47;99660.13;;;6.72;85.35
73700;BME280;62005;50.082;8.988;2023-04-15T06:41:15;99669.34;;;6.83;85.59
73700;BME280;62005;50.082;8.988;2023-04-15T06:43:41;99663.38;;;6.81;85.15
73700;BME280;62005;50.082;8.988;2023-04-15T06:46:07;99634.28;;;6.71;85.66
73700;BME280;62005;50.082;8.988;2023-04-15T06:48:38;99625.03;;;6.67;84.74
73700;BME280;62005;50.082;8.988;2023-04-15T06:51:45;99639.00;;;6.82;85.41
73700;BME280;62005;50.082;8.988;2023-04-15T06:54:51;99616.72;;;6.75;84.94
73700;BME280;62005;50.082;8.988;2023-04-15T06:57:37;99605.97;;;6.75;84.83
73700;BME280;62005;50.082;8.988;2023-04-15T07:00:10;99650.00;;;7.05;84.43
73700;BME280;62005;50.082;8.988;2023-04-15T07:02:50;99635.50;;;7.06;84.19
73700;BME280;62005;50.082;8.988;2023-04-15T07:05:22;99650.06;;;7.23;84.56
73700;BME280;62005;50.082;8.988;2023-04-15T07:07:47;99681.50;;;7.47;84.42
73700;BME280;62005;50.082;8.988;2023-04-15T07:10:20;99616.81;;;7.18;83.94
73700;BME280;62005;50.082;8.988;2023-04-15T07:12:47;99661.22;;;7.51;83.95
73700;BME280;62005;50.082;8.988;2023-04-15T07:15:12;99682.56;;;7.71;84.13
73700;BME280;62005;50.082;8.988;2023-04-15T07:17:39;99701.03;;;7.85;84.13
73700;BME280;62005;50.082;8.988;2023-04-15T07:20:05;99683.25;;;7.84;83.75
73700;BME280;62005;50.082;8.988;2023-04-15T07:22:30;99685.66;;;7.92;83.65
73700;BME280;62005;50.082;8.988;2023-04-15T07:24:55;99686.88;;;7.97;83.92
73700;BME280;62005;50.082;8.988;2023-04-15T07:27:24;99665.34;;;7.97;83.29
73700;BME280;62005;50.082;8.988;2023-04-15T07:29:50;99678.06;;;8.08;82.83
73700;BME280;62005;50.082;8.988;2023-04-15T07:32:16;99685.00;;;8.15;83.47
73700;BME280;62005;50.082;8.988;2023-04-15T07:34:41;99668.47;;;8.12;83.51
73700;BME280;62005;50.082;8.988;2023-04-15T07:37:07;99687.78;;;8.27;83.34
73700;BME280;62005;50.082;8.988;2023-04-15T07:39:32;99684.88;;;8.28;82.19
73700;BME280;62005;50.082;8.988;2023-04-15T07:41:58;99683.63;;;8.31;82.68
73700;BME280;62005;50.082;8.988;2023-04-15T07:44:24;99680.47;;;8.34;82.97
73700;BME280;62005;50.082;8.988;2023-04-15T07:46:49;99672.84;;;8.31;82.12
73700;BME280;62005;50.082;8.988;2023-04-15T07:49:15;99670.75;;;8.33;82.21
73700;BME280;62005;50.082;8.988;2023-04-15T07:51:45;99692.28;;;8.51;82.32
73700;BME280;62005;50.082;8.988;2023-04-15T07:54:11;99684.22;;;8.51;82.71
73700;BME280;62005;50.082;8.988;2023-04-15T07:56:36;99641.72;;;8.35;82.86
73700;BME280;62005;50.082;8.988;2023-04-15T07:59:10;99609.53;;;8.22;82.35
73700;BME280;62005;50.082;8.988;2023-04-15T08:01:39;99663.53;;;8.63;82.61
73700;BME280;62005;50.082;8.988;2023-04-15T08:04:04;99637.38;;;8.52;82.64
73700;BME280;62005;50.082;8.988;2023-04-15T08:06:32;99653.34;;;8.65;81.94
73700;BME280;62005;50.082;8.988;2023-04-15T08:09:11;99621.94;;;8.59;82.26
73700;BME280;62005;50.082;8.988;2023-04-15T08:14:34;99619.19;;;8.77;80.06
73700;BME280;62005;50.082;8.988;2023-04-15T08:17:31;99676.53;;;9.25;81.50
73700;BME280;62005;50.082;8.988;2023-04-15T08:20:02;99616.72;;;9.05;81.25
73700;BME280;62005;50.082;8.988;2023-04-15T08:22:55;99694.19;;;9.62;81.39
73700;BME280;62005;50.082;8.988;2023-04-15T08:25:58;99685.44;;;9.78;81.16
73700;BME280;62005;50.082;8.988;2023-04-15T08:31:51;99633.31;;;9.78;79.38
73700;BME280;62005;50.082;8.988;2023-04-15T08:34:23;99619.09;;;9.82;79.17
73700;BME280;62005;50.082;8.988;2023-04-15T08:36:57;99645.63;;;10.08;78.16
73700;BME280;62005;50.082;8.988;2023-04-15T08:39:22;99656.53;;;10.25;77.76
73700;BME280;62005;50.082;8.988;2023-04-15T08:42:05;99652.66;;;10.32;78.51
73700;BME280;62005;50.082;8.988;2023-04-15T08:44:36;99676.19;;;10.60;78.13
73700;BME280;62005;50.082;8.988;2023-04-15T08:47:03;99680.47;;;10.73;78.00
73700;BME280;62005;50.082;8.988;2023-04-15T08:49:31;99668.72;;;10.79;77.33
73700;BME280;62005;50.082;8.988;2023-04-15T08:51:58;99676.53;;;10.92;76.07
73700;BME280;62005;50.082;8.988;2023-04-15T08:54:24;99678.25;;;10.98;75.57
73700;BME280;62005;50.082;8.988;2023-04-15T08:56:51;99683.38;;;11.11;75.27
73700;BME280;62005;50.082;8.988;2023-04-15T08:59:18;99661.09;;;11.04;74.02
73700;BME280;62005;50.082;8.988;2023-04-15T09:02:07;99628.94;;;10.91;73.72
73700;BME280;62005;50.082;8.988;2023-04-15T09:04:46;99649.78;;;11.07;72.15
73700;BME280;62005;50.082;8.988;2023-04-15T09:07:25;99644.38;;;11.07;72.70
73700;BME280;62005;50.082;8.988;2023-04-15T09:09:53;99665.22;;;11.23;73.39
73700;BME280;62005;50.082;8.988;2023-04-15T09:12:39;99665.22;;;11.23;71.76
73700;BME280;62005;50.082;8.988;2023-04-15T09:15:11;99633.56;;;11.07;71.84
73700;BME280;62005;50.082;8.988;2023-04-15T09:17:54;99623.78;;;11.06;71.59
73700;BME280;62005;50.082;8.988;2023-04-15T09:20:25;99658.81;;;11.29;71.11
73700;BME280;62005;50.082;8.988;2023-04-15T09:22:57;99645.69;;;11.21;72.00
73700;BME280;62005;50.082;8.988;2023-04-15T09:25:48;99664.72;;;11.26;69.70
73700;BME280;62005;50.082;8.988;2023-04-15T09:28:28;99646.69;;;11.15;70.05
73700;BME280;62005;50.082;8.988;2023-04-15T09:31:03;99712.31;;;11.55;69.48
73700;BME280;62005;50.082;8.988;2023-04-15T09:34:09;99660.28;;;11.20;69.94
73700;BME280;62005;50.082;8.988;2023-04-15T09:39:27;99669.63;;;11.29;70.60
73700;BME280;62005;50.082;8.988;2023-04-15T09:45:55;99670.78;;;11.33;70.02
73700;BME280;62005;50.082;8.988;2023-04-15T09:58:37;99735.13;;;11.59;69.76
73700;BME280;62005;50.082;8.988;2023-04-15T10:01:03;99729.63;;;11.54;69.88
73700;BME280;62005;50.082;8.988;2023-04-15T10:03:34;99744.66;;;11.61;70.32
73700;BME280;62005;50.082;8.988;2023-04-15T10:06:02;99738.06;;;11.57;69.66
73700;BME280;62005;50.082;8.988;2023-04-15T10:08:31;99739.41;;;11.55;68.69
73700;BME280;62005;50.082;8.988;2023-04-15T10:10:58;99745.44;;;11.62;68.58
73700;BME280;62005;50.082;8.988;2023-04-15T10:13:25;99746.28;;;11.62;68.58
73700;BME280;62005;50.082;8.988;2023-04-15T10:16:00;99747.13;;;11.63;69.67
73700;BME280;62005;50.082;8.988;2023-04-15T10:18:31;99752.41;;;11.69;70.29
73700;BME280;62005;50.082;8.988;2023-04-15T10:20:59;99746.16;;;11.69;69.46
73700;BME280;62005;50.082;8.988;2023-04-15T10:23:27;99761.91;;;11.72;69.55
73700;BME280;62005;50.082;8.988;2023-04-15T10:25:53;99741.69;;;11.63;69.55
73700;BME280;62005;50.082;8.988;2023-04-15T10:28:19;99762.41;;;11.69;69.67
73700;BME280;62005;50.082;8.988;2023-04-15T10:30:47;99756.03;;;11.75;69.91
73700;BME280;62005;50.082;8.988;2023-04-15T10:33:44;99761.44;;;11.75;69.42
73700;BME280;62005;50.082;8.988;2023-04-15T10:57:13;99776.19;;;11.84;71.99
73700;BME280;62005;50.082;8.988;2023-04-15T11:05:06;99766.38;;;11.78;73.76
73700;BME280;62005;50.082;8.988;2023-04-15T11:09:57;99782.78;;;11.88;74.02
73700;BME280;62005;50.082;8.988;2023-04-15T11:12:41;99777.38;;;11.88;74.13
73700;BME280;62005;50.082;8.988;2023-04-15T11:15:42;99792.28;;;11.91;74.86
73700;BME280;62005;50.082;8.988;2023-04-15T11:27:22;99802.69;;;11.82;74.91
73700;BME280;62005;50.082;8.988;2023-04-15T12:34:27;99879.22;;;11.49;79.50
73700;BME280;62005;50.082;8.988;2023-04-15T12:36:53;99881.56;;;11.46;79.72
73700;BME280;62005;50.082;8.988;2023-04-15T12:41:54;99892.50;;;11.51;80.55
73700;BME280;62005;50.082;8.988;2023-04-15T12:44:21;99886.50;;;11.49;80.46
73700;BME280;62005;50.082;8.988;2023-04-15T12:46:48;99891.44;;;11.52;80.77
73700;BME280;62005;50.082;8.988;2023-04-15T12:49:14;99887.56;;;11.48;80.72
73700;BME280;62005;50.082;8.988;2023-04-15T15:24:15;100034.84;;;10.83;86.13
73700;BME280;62005;50.082;8.988;2023-04-15T15:58:50;100070.78;;;10.60;86.58
73700;BME280;62005;50.082;8.988;2023-04-15T16:01:16;100070.41;;;10.57;86.54
73700;BME280;62005;50.082;8.988;2023-04-15T16:03:41;100066.75;;;10.51;86.73
73700;BME280;62005;50.082;8.988;2023-04-15T16:06:06;100071.69;;;10.54;86.14
73700;BME280;62005;50.082;8.988;2023-04-15T16:08:32;100064.72;;;10.46;86.31
73700;BME280;62005;50.082;8.988;2023-04-15T16:24:37;100100.09;;;10.45;87.31
73700;BME280;62005;50.082;8.988;2023-04-15T16:52:08;100128.91;;;10.33;88.24
73700;BME280;62005;50.082;8.988;2023-04-15T16:54:33;100104.53;;;10.21;88.15
73700;BME280;62005;50.082;8.988;2023-04-15T16:57:01;100121.50;;;10.28;88.14
73700;BME280;62005;50.082;8.988;2023-04-15T16:59:27;100127.97;;;10.27;88.40
73700;BME280;62005;50.082;8.988;2023-04-15T17:01:53;100136.91;;;10.28;88.13
73700;BME280;62005;50.082;8.988;2023-04-15T17:04:18;100125.72;;;10.24;88.47
73700;BME280;62005;50.082;8.988;2023-04-15T17:06:44;100117.91;;;10.16;88.71
73700;BME280;62005;50.082;8.988;2023-04-15T18:29:15;100243.06;;;10.04;90.52
73700;BME280;62005;50.082;8.988;2023-04-15T18:31:40;100247.63;;;10.03;90.32
73700;BME280;62005;50.082;8.988;2023-04-15T18:34:09;100241.06;;;9.99;90.78
73700;BME280;62005;50.082;8.988;2023-04-15T18:36:34;100246.91;;;9.96;90.38
73700;BME280;62005;50.082;8.988;2023-04-15T18:39:00;100242.38;;;9.90;90.54
73700;BME280;62005;50.082;8.988;2023-04-15T18:41:25;100258.91;;;10.00;90.99
73700;BME280;62005;50.082;8.988;2023-04-15T18:43:51;100264.28;;;10.00;90.89
73700;BME280;62005;50.082;8.988;2023-04-15T18:46:16;100262.66;;;9.99;90.51
73700;BME280;62005;50.082;8.988;2023-04-15T18:48:45;100275.09;;;10.00;90.60
73700;BME280;62005;50.082;8.988;2023-04-15T18:51:11;100265.19;;;9.94;90.19
73700;BME280;62005;50.082;8.988;2023-04-15T18:53:36;100275.53;;;9.97;90.90
73700;BME280;62005;50.082;8.988;2023-04-15T18:56:02;100282.59;;;9.98;91.02
73700;BME280;62005;50.082;8.988;2023-04-15T19:29:35;100303.53;;;9.78;91.36
73700;BME280;62005;50.082;8.988;2023-04-15T19:32:04;100251.22;;;9.48;91.37
73700;BME280;62005;50.082;8.988;2023-04-15T19:34:56;100320.44;;;9.92;90.92
73700;BME280;62005;50.082;8.988;2023-04-15T19:37:25;100300.84;;;9.78;91.29
73700;BME280;62005;50.082;8.988;2023-04-15T20:32:44;100343.31;;;9.89;91.77
73700;BME280;62005;50.082;8.988;2023-04-15T21:28:07;100340.44;;;9.53;91.65
73700;BME280;62005;50.082;8.988;2023-04-15T23:33:28;100502.50;;;9.71;90.48
73700;BME280;62005;50.082;8.988;2023-04-15T23:35:53;100505.81;;;9.73;90.34
73700;BME280;62005;50.082;8.988;2023-04-15T23:38:19;100492.91;;;9.75;90.86
